Terminal Aerodrome Forecast
Issued by NWS Duluth, MN

Home | Current Version | Previous Version | Text Only | Print | Product List | Glossary On
Versions: 1 2 3 4 5 6 7 8 9 10 11 12 13 14 15 16 17 18 19 20 21 22
000
FTUS43 KDLH 152300 RRA
TAFDLH
TAF
KDLH 152342Z 1600/1624 26008KT P6SM SKC
     FM161000 10012KT P6SM BKN060 OVC120
      TEMPO 1613/1615 6SM -SHSN BKN025 OVC060
     FM161500 09017G25KT 3SM -SN BKN012 OVC028
      TEMPO 1617/1621 1/2SM SN VV006
     FM162100 08017G25KT 2SM -SN OVC008=

USA.gov is the U.S. government's official web portal to all federal, state and local government web resources and services.